createdAt,value
2022-11-13T00:01:35.275Z,100.00
2022-11-13T00:16:36.808Z,100.00
2022-11-13T00:31:38.360Z,100.00
2022-11-13T00:46:39.834Z,100.00
2022-11-13T01:01:41.394Z,100.00
2022-11-13T01:16:42.927Z,100.00
2022-11-13T01:31:44.400Z,100.00
2022-11-13T01:46:48.777Z,100.00
2022-11-13T02:01:50.380Z,100.00
2022-11-13T02:16:53.593Z,100.00
2022-11-13T02:31:55.821Z,100.00
2022-11-13T02:46:57.402Z,100.00
2022-11-13T03:01:58.889Z,100.00
2022-11-13T03:17:00.397Z,100.00
2022-11-13T03:32:03.353Z,100.00
2022-11-13T03:47:04.846Z,100.00
2022-11-13T04:02:06.366Z,100.00
2022-11-13T04:17:07.941Z,100.00
2022-11-13T04:32:09.418Z,100.00
2022-11-13T04:47:10.936Z,100.00
2022-11-13T05:02:12.449Z,100.00
2022-11-13T05:17:14.357Z,100.00
2022-11-13T05:32:15.897Z,100.00
2022-11-13T05:47:17.382Z,100.00
2022-11-13T06:02:18.899Z,100.00
2022-11-13T06:17:20.436Z,100.00
2022-11-13T06:32:21.910Z,100.00
2022-11-13T06:47:23.359Z,100.00
2022-11-13T07:02:24.842Z,100.00
2022-11-13T07:17:27.981Z,100.00
2022-11-13T07:32:29.437Z,100.00
2022-11-13T07:47:30.962Z,99.28
2022-11-13T08:02:32.485Z,100.00
2022-11-13T08:17:33.988Z,98.93
2022-11-13T08:32:35.436Z,95.35
2022-11-13T08:47:37.118Z,89.71
2022-11-13T09:02:38.654Z,91.63
2022-11-13T09:17:40.379Z,86.07
2022-11-13T09:32:41.878Z,88.39
2022-11-13T09:47:44.768Z,86.93
2022-11-13T10:02:55.119Z,88.05
2022-11-13T10:18:02.353Z,88.14
2022-11-13T10:33:08.313Z,85.75
2022-11-13T10:48:19.812Z,83.99
2022-11-13T11:03:24.918Z,81.05
2022-11-13T11:18:34.279Z,84.00
2022-11-13T11:33:37.556Z,86.62
2022-11-13T11:48:39.408Z,86.51
2022-11-13T12:03:40.886Z,87.27
2022-11-13T12:19:01.271Z,88.20
2022-11-13T12:34:19.034Z,86.12
2022-11-13T12:49:23.334Z,85.13
2022-11-13T13:04:27.919Z,82.43
2022-11-13T13:19:30.892Z,81.77
2022-11-13T13:34:41.293Z,84.27
2022-11-13T13:49:42.828Z,83.81
2022-11-13T14:04:48.395Z,84.57
2022-11-13T14:19:51.122Z,89.88
2022-11-13T14:34:54.154Z,94.28
2022-11-13T14:49:55.660Z,100.00
2022-11-13T15:04:57.115Z,100.00
2022-11-13T15:19:58.617Z,100.00
2022-11-13T15:35:00.107Z,100.00
2022-11-13T15:50:13.464Z,100.00
2022-11-13T16:05:16.483Z,100.00
2022-11-13T16:20:18.176Z,100.00
2022-11-13T16:35:20.044Z,100.00
2022-11-13T16:50:28.067Z,100.00
2022-11-13T17:05:29.606Z,100.00
2022-11-13T17:20:31.092Z,100.00
2022-11-13T17:35:32.534Z,100.00
2022-11-13T17:50:34.103Z,100.00
2022-11-13T18:05:40.539Z,100.00
2022-11-13T18:20:42.379Z,100.00
2022-11-13T18:35:43.945Z,100.00
2022-11-13T18:50:54.565Z,100.00
2022-11-13T19:05:56.011Z,100.00
2022-11-13T19:20:57.473Z,100.00
2022-11-13T19:35:58.926Z,100.00
2022-11-13T19:51:04.270Z,100.00
2022-11-13T20:06:06.298Z,100.00
2022-11-13T20:21:07.878Z,100.00
2022-11-13T20:36:09.666Z,100.00
2022-11-13T20:51:13.426Z,100.00
2022-11-13T21:06:16.354Z,100.00
2022-11-13T21:21:19.500Z,100.00
2022-11-13T21:36:22.274Z,100.00
2022-11-13T21:51:23.750Z,100.00
2022-11-13T22:16:09.494Z,100.00
2022-11-13T22:31:15.551Z,100.00
2022-11-13T22:46:18.261Z,100.00
2022-11-13T23:01:24.533Z,100.00
2022-11-13T23:16:26.873Z,100.00
2022-11-13T23:31:28.355Z,100.00
2022-11-13T23:46:29.795Z,100.00
